Time;durP1;ratioP1;P1;durP2;ratioP2;P2;SDS_P1;SDS_P2;PMS_P1;PMS_P2;Temp;Humidity;BMP_temperature;BMP_pressure;BME280_temperature;BME280_humidity;BME280_pressure;Samples;Min_cycle;Max_cycle;Signal;HPM_P1;HPM_P2
2022/08/02 00:06:52;;;;;;;3.50;3.20;;;27.20;51.90;;;;;;5134413;28;20474;-80
2022/08/02 00:09:19;;;;;;;4.20;3.43;;;27.10;51.80;;;;;;5116797;28;20441;-80
2022/08/02 00:11:54;;;;;;;3.70;3.40;;;27.10;51.90;;;;;;5134230;28;20516;-81
2022/08/02 00:14:21;;;;;;;4.03;2.90;;;27.10;52.40;;;;;;5107568;28;20427;-80
2022/08/02 00:16:48;;;;;;;3.80;3.30;;;27.10;51.90;;;;;;5096667;28;20403;-80
2022/08/02 00:19:18;;;;;;;3.10;2.70;;;27.10;51.90;;;;;;5077363;28;20408;-80
2022/08/02 00:21:47;;;;;;;3.40;2.93;;;27.10;51.80;;;;;;5096904;28;20419;-80
2022/08/02 00:24:15;;;;;;;3.27;2.97;;;27.10;51.80;;;;;;5096468;28;20423;-80
2022/08/02 00:26:43;;;;;;;3.60;3.30;;;27.20;51.90;;;;;;5079923;28;20451;-80
2022/08/02 00:29:11;;;;;;;3.80;2.67;;;27.20;51.80;;;;;;5096233;28;20475;-80
2022/08/02 00:31:42;;;;;;;3.00;2.60;;;27.20;51.90;;;;;;5079573;28;20452;-80
2022/08/02 00:34:11;;;;;;;3.10;2.60;;;27.20;51.80;;;;;;5096154;28;20435;-80
2022/08/02 00:36:38;;;;;;;4.10;2.50;;;27.20;51.80;;;;;;5096196;28;20469;-80
2022/08/02 00:39:08;;;;;;;3.00;2.70;;;27.10;51.80;;;;;;5096101;28;20740;-80
2022/08/02 00:41:44;;;;;;;3.00;2.70;;;27.10;51.70;;;;;;5095420;28;20415;-80
2022/08/02 00:44:12;;;;;;;3.67;3.00;;;27.20;51.80;;;;;;5096014;28;20457;-79
2022/08/02 00:46:39;;;;;;;3.90;3.37;;;27.10;51.70;;;;;;5096333;28;20416;-80
2022/08/02 00:49:08;;;;;;;3.40;3.10;;;27.10;51.70;;;;;;5095689;28;20415;-80
2022/08/02 00:51:35;;;;;;;3.40;2.83;;;27.10;51.70;;;;;;5113468;28;20451;-80
2022/08/02 00:54:04;;;;;;;3.40;3.10;;;27.10;51.70;;;;;;5094873;28;20416;-80
2022/08/02 00:56:35;;;;;;;2.87;2.57;;;27.10;51.80;;;;;;5095595;28;20841;-80
2022/08/02 00:59:04;;;;;;;2.77;2.57;;;27.10;51.70;;;;;;5095835;28;20412;-79
2022/08/02 01:01:38;;;;;;;4.33;4.03;;;27.10;51.80;;;;;;5095085;28;20412;-80
2022/08/02 01:04:14;;;;;;;3.13;2.83;;;27.10;51.80;;;;;;5113170;28;20754;-79
2022/08/02 01:06:42;;;;;;;3.00;2.73;;;27.10;51.70;;;;;;5113152;28;20396;-80
2022/08/02 01:09:10;;;;;;;3.00;2.70;;;27.10;51.80;;;;;;5095895;28;20419;-80
2022/08/02 01:11:36;;;;;;;3.60;3.17;;;27.10;51.80;;;;;;5095676;28;20471;-80
2022/08/02 01:14:11;;;;;;;3.50;2.80;;;27.10;51.80;;;;;;5094936;28;20408;-80
2022/08/02 01:17:02;;;;;;;3.63;3.30;;;27.10;51.80;;;;;;5078758;28;20215;-79
2022/08/02 01:20:09;;;;;;;3.17;2.93;;;27.10;51.70;;;;;;5112971;28;20430;-79
2022/08/02 01:23:04;;;;;;;3.77;3.17;;;27.10;51.70;;;;;;5095545;28;20408;-80
2022/08/02 01:25:51;;;;;;;2.83;2.63;;;27.10;51.80;;;;;;5095224;28;20412;-79
2022/08/02 01:28:42;;;;;;;2.80;2.50;;;27.10;51.80;;;;;;5113440;28;20403;-79
2022/08/02 01:31:48;;;;;;;2.97;2.70;;;27.10;51.80;;;;;;5096028;28;20806;-80
2022/08/02 01:34:36;;;;;;;2.33;2.13;;;27.10;51.80;;;;;;5030571;28;20408;-79
2022/08/02 01:37:35;;;;;;;3.20;2.73;;;27.00;51.70;;;;;;5094917;28;20438;-80
2022/08/02 01:40:08;;;;;;;3.17;2.87;;;27.00;51.70;;;;;;5089585;28;20418;-80
2022/08/02 01:42:37;;;;;;;3.13;2.70;;;27.00;51.80;;;;;;5095103;28;20481;-79
2022/08/02 01:45:16;;;;;;;2.70;2.30;;;27.00;51.70;;;;;;5095778;28;20411;-78
2022/08/02 01:47:46;;;;;;;3.20;2.33;;;27.00;51.70;;;;;;5080416;28;20411;-79
2022/08/02 01:50:16;;;;;;;2.77;2.27;;;27.00;51.70;;;;;;5095176;28;20530;-79
2022/08/02 01:52:54;;;;;;;2.17;1.97;;;27.00;51.70;;;;;;5095680;28;20411;-79
2022/08/02 01:55:36;;;;;;;2.07;1.87;;;27.00;51.70;;;;;;5094815;28;20408;-79
2022/08/02 01:58:06;;;;;;;2.70;1.90;;;27.00;51.70;;;;;;5113000;28;20399;-79
2022/08/02 02:00:38;;;;;;;2.30;2.10;;;27.00;51.70;;;;;;5094585;28;20424;-79
2022/08/02 02:03:13;;;;;;;2.60;2.07;;;27.00;51.70;;;;;;5094880;28;20392;-79
2022/08/02 02:05:43;;;;;;;2.07;1.87;;;26.90;51.60;;;;;;5094977;28;20469;-79
2022/08/02 02:08:16;;;;;;;2.20;2.00;;;26.90;51.60;;;;;;5112108;28;20399;-78
2022/08/02 02:10:46;;;;;;;2.40;2.20;;;27.00;51.70;;;;;;5094333;28;20481;-79
2022/08/02 02:13:20;;;;;;;2.60;1.77;;;27.00;51.60;;;;;;5094895;28;20506;-79
2022/08/02 02:15:50;;;;;;;2.07;1.87;;;26.90;51.60;;;;;;5094496;28;20515;-79
2022/08/02 02:18:27;;;;;;;2.30;1.80;;;26.90;51.60;;;;;;5112114;28;20407;-80
2022/08/02 02:20:56;;;;;;;2.30;2.10;;;26.90;51.60;;;;;;5093688;28;20435;-79
2022/08/02 02:23:24;;;;;;;2.63;2.10;;;26.90;52.10;;;;;;5094426;28;20424;-79
2022/08/02 02:25:54;;;;;;;2.10;1.90;;;26.90;51.60;;;;;;5093628;28;20422;-79
2022/08/02 02:28:31;;;;;;;2.70;2.20;;;26.90;51.50;;;;;;5093488;28;20425;-79
2022/08/02 02:31:20;;;;;;;2.10;1.90;;;26.90;51.50;;;;;;5094128;28;20475;-79
2022/08/02 02:34:09;;;;;;;2.50;1.70;;;26.90;51.50;;;;;;5112518;28;20412;-81
2022/08/02 02:36:42;;;;;;;3.73;2.07;;;26.90;51.50;;;;;;5104780;28;20414;-79
2022/08/02 02:39:11;;;;;;;2.80;1.87;;;26.90;51.60;;;;;;5081072;28;20404;-79
2022/08/02 02:41:47;;;;;;;2.27;2.07;;;26.90;51.60;;;;;;5114841;28;20431;-79
2022/08/02 02:44:18;;;;;;;1.93;1.70;;;26.90;51.60;;;;;;5096424;28;20427;-80
2022/08/02 02:46:53;;;;;;;2.10;2.00;;;26.90;51.60;;;;;;5097754;28;20403;-79
2022/08/02 02:49:22;;;;;;;2.20;2.00;;;26.90;51.60;;;;;;5097988;28;20491;-79
2022/08/02 02:51:51;;;;;;;2.80;2.40;;;26.90;51.60;;;;;;5080868;28;20482;-79
2022/08/02 02:54:46;;;;;;;;;;;;;;;;;;;;;
2022/08/02 02:57:34;;;;;;;2.13;1.93;;;26.90;51.60;;;;;;5116306;28;20415;-81
2022/08/02 03:06:39;;;;;;;2.20;2.00;;;26.90;51.60;;;;;;5036084;28;20454;-80
2022/08/02 03:09:11;;;;;;;2.00;1.80;;;26.90;51.60;;;;;;5003788;28;20446;-80
2022/08/02 03:11:42;;;;;;;2.70;2.10;;;26.90;51.60;;;;;;5018619;28;20442;-80
2022/08/02 03:14:19;;;;;;;2.17;1.80;;;26.90;51.60;;;;;;5030661;28;20454;-79
2022/08/02 03:17:06;;;;;;;2.30;2.10;;;26.90;51.50;;;;;;5036568;28;20403;-79
2022/08/02 03:19:39;;;;;;;2.30;2.10;;;26.90;51.50;;;;;;5035793;28;20423;-79
2022/08/02 03:22:34;;;;;;;2.50;2.30;;;26.90;51.50;;;;;;5036667;28;20423;-79
2022/08/02 03:25:22;;;;;;;2.17;1.97;;;26.90;51.50;;;;;;5017536;28;20450;-79
2022/08/02 03:27:52;;;;;;;2.40;2.20;;;26.90;51.50;;;;;;5033552;28;20423;-80
2022/08/02 03:30:26;;;;;;;2.43;2.10;;;26.90;51.60;;;;;;5019656;28;20435;-81
2022/08/02 03:32:57;;;;;;;3.00;2.10;;;26.90;51.60;;;;;;5036238;28;20408;-80
2022/08/02 03:35:29;;;;;;;2.60;2.20;;;26.90;51.50;;;;;;5019697;28;20418;-80
2022/08/02 03:38:00;;;;;;;2.80;2.50;;;26.90;51.50;;;;;;5035979;28;20462;-81
2022/08/02 03:40:48;;;;;;;2.87;2.37;;;26.90;51.50;;;;;;5035931;28;20457;-81
2022/08/02 03:43:17;;;;;;;2.40;1.90;;;26.90;51.50;;;;;;5019702;28;20510;-81
2022/08/02 03:46:38;;;;;;;2.47;2.00;;;26.90;51.50;;;;;;5019328;28;20487;-81
2022/08/02 03:49:11;;;;;;;2.03;1.90;;;26.90;51.50;;;;;;5019175;28;20403;-81
2022/08/02 03:51:50;;;;;;;2.53;2.30;;;26.90;51.50;;;;;;5019672;28;20478;-81
2022/08/02 03:54:28;;;;;;;2.90;2.33;;;26.90;51.50;;;;;;5116919;28;20491;-81
2022/08/02 03:56:58;;;;;;;2.73;2.53;;;26.90;51.50;;;;;;5100703;28;20419;-81
2022/08/02 03:59:25;;;;;;;1.93;1.77;;;26.80;51.50;;;;;;5098758;28;20420;-80
2022/08/02 04:01:53;;;;;;;2.30;2.10;;;26.80;51.50;;;;;;5096881;28;20766;-79
2022/08/02 04:04:20;;;;;;;2.67;1.90;;;26.90;51.60;;;;;;5097616;28;20467;-82
2022/08/02 04:07:03;;;;;;;2.90;1.83;;;26.80;51.40;;;;;;5065385;28;20412;-80
2022/08/02 04:09:44;;;;;;;2.10;1.90;;;26.80;51.50;;;;;;5117202;28;20368;-81
2022/08/02 04:12:19;;;;;;;2.50;2.13;;;26.80;51.50;;;;;;5083357;28;20444;-81
2022/08/02 04:14:57;;;;;;;2.17;1.97;;;26.80;51.50;;;;;;5099414;28;20404;-81
2022/08/02 04:20:55;;;;;;;1.70;1.60;;;26.80;51.50;;;;;;5095863;28;20476;-81
2022/08/02 04:23:42;;;;;;;2.30;2.10;;;26.80;51.60;;;;;;5062849;28;20416;-81
2022/08/02 04:26:36;;;;;;;3.10;2.20;;;26.80;51.60;;;;;;5094550;28;20503;-81
2022/08/02 04:29:31;;;;;;;2.47;1.60;;;26.80;51.60;;;;;;5032777;28;20419;-81
2022/08/02 04:32:06;;;;;;;2.10;1.80;;;26.80;51.60;;;;;;5035528;28;20789;-81
2022/08/02 04:34:41;;;;;;;2.67;2.10;;;26.80;51.50;;;;;;5035555;28;20418;-82
2022/08/02 04:38:24;;;;;;;2.27;2.07;;;26.80;51.50;;;;;;5020709;28;20432;-81
2022/08/02 04:40:55;;;;;;;2.10;1.90;;;26.80;51.50;;;;;;5045300;28;20515;-81
2022/08/02 04:43:45;;;;;;;2.17;1.97;;;26.80;51.50;;;;;;5035068;28;20415;-82
2022/08/02 04:50:06;;;;;;;1.87;1.77;;;26.80;51.50;;;;;;4995994;28;20424;-81
2022/08/02 04:56:11;;;;;;;2.07;1.87;;;26.90;51.50;;;;;;4995821;28;20399;-81
2022/08/02 04:58:50;;;;;;;2.20;1.93;;;26.80;51.50;;;;;;4994487;28;20485;-81
2022/08/02 05:01:29;;;;;;;2.20;2.00;;;26.80;51.50;;;;;;4995275;28;20423;-81
2022/08/02 05:04:01;;;;;;;1.90;1.70;;;26.80;51.50;;;;;;4994873;28;20409;-82
2022/08/02 05:06:37;;;;;;;2.33;2.13;;;26.80;51.50;;;;;;4995141;28;20413;-82
2022/08/02 05:09:06;;;;;;;2.03;1.60;;;26.80;51.50;;;;;;4979455;28;20830;-82
2022/08/02 05:11:45;;;;;;;3.20;1.77;;;26.90;51.50;;;;;;4994965;28;20463;-82
2022/08/02 05:14:15;;;;;;;2.03;1.83;;;26.90;51.50;;;;;;5015711;28;20415;-82
2022/08/02 05:16:48;;;;;;;1.97;1.77;;;26.90;51.40;;;;;;5046752;28;20424;-82
2022/08/02 05:22:52;;;;;;;2.17;1.90;;;26.90;51.40;;;;;;5098484;28;20387;-81
2022/08/02 05:25:21;;;;;;;1.93;1.83;;;26.90;51.40;;;;;;5100820;28;20391;-81
2022/08/02 05:27:57;;;;;;;2.00;1.67;;;26.90;51.40;;;;;;5065234;28;20414;-80
2022/08/02 05:31:08;;;;;;;2.00;1.80;;;26.90;51.40;;;;;;5102307;28;20466;-82
2022/08/02 05:33:54;;;;;;;3.53;2.30;;;26.90;51.40;;;;;;5056766;28;20423;-81
2022/08/02 05:36:23;;;;;;;2.30;2.10;;;26.90;51.30;;;;;;5098017;28;20411;-82
2022/08/02 05:42:44;;;;;;;2.20;2.00;;;26.90;51.30;;;;;;5115513;28;20689;-82
2022/08/02 05:45:44;;;;;;;;;;;;;;;;;;;;;
2022/08/02 05:48:15;;;;;;;2.27;2.07;;;26.90;51.90;;;;;;5115696;28;20407;-82
2022/08/02 05:51:16;;;;;;;2.13;1.93;;;26.90;51.40;;;;;;5093188;28;20481;-82
2022/08/02 05:54:22;;;;;;;2.03;1.83;;;26.90;51.40;;;;;;5022152;28;20417;-83
2022/08/02 05:57:12;;;;;;;2.30;2.10;;;26.90;51.40;;;;;;4975443;29;20510;-82
2022/08/02 06:09:58;;;;;;;2.47;2.27;;;26.90;51.50;;;;;;4956174;29;20386;-81
2022/08/02 06:16:03;;;;;;;1.80;1.70;;;26.90;51.60;;;;;;4959879;29;20418;-82
2022/08/02 06:18:34;;;;;;;3.20;2.30;;;26.90;51.60;;;;;;4959689;29;20395;-82
2022/08/02 06:21:28;;;;;;;2.03;1.83;;;26.90;51.60;;;;;;4959357;29;20415;-81
2022/08/02 06:24:10;;;;;;;3.20;1.90;;;26.90;51.70;;;;;;4941184;29;20948;-81
2022/08/02 06:26:44;;;;;;;2.17;1.97;;;26.90;51.60;;;;;;4959581;29;20415;-81
2022/08/02 06:29:21;;;;;;;2.30;2.10;;;26.90;51.60;;;;;;4944092;29;20431;-81
2022/08/02 06:32:22;;;;;;;2.83;2.20;;;26.90;51.50;;;;;;4960839;29;20464;-81
2022/08/02 06:34:53;;;;;;;2.73;2.53;;;26.90;51.50;;;;;;4977532;29;20430;-81
2022/08/02 06:37:52;;;;;;;2.50;2.10;;;26.90;51.50;;;;;;4961532;29;20431;-81
2022/08/02 06:40:28;;;;;;;2.33;2.13;;;26.90;51.60;;;;;;4963063;29;20407;-81
2022/08/02 06:43:26;;;;;;;2.83;2.50;;;26.90;51.50;;;;;;4978366;29;20440;-81
2022/08/02 06:46:01;;;;;;;2.10;1.90;;;26.90;51.60;;;;;;4978197;28;20441;-81
2022/08/02 06:49:27;;;;;;;;;;;;;;;;;;;;;
2022/08/02 06:52:06;;;;;;;2.10;1.90;;;26.90;51.60;;;;;;4940457;29;20462;-81
2022/08/02 06:54:37;;;;;;;2.17;1.97;;;26.90;51.60;;;;;;4924919;29;20475;-80
2022/08/02 06:57:19;;;;;;;2.77;2.50;;;26.90;51.60;;;;;;4923628;29;20431;-81
2022/08/02 06:59:55;;;;;;;2.23;2.00;;;26.90;51.60;;;;;;4927599;29;20735;-82
2022/08/02 07:09:19;;;;;;;2.17;1.97;;;26.90;51.60;;;;;;4894406;29;20385;-82
2022/08/02 07:12:04;;;;;;;2.10;1.93;;;26.90;51.60;;;;;;4887320;29;20529;-81
2022/08/02 07:14:38;;;;;;;2.27;2.07;;;26.90;51.60;;;;;;4902141;29;20507;-81
2022/08/02 07:24:20;;;;;;;2.60;2.40;;;26.90;51.60;;;;;;4864814;29;20419;-81
2022/08/02 07:26:55;;;;;;;2.03;1.83;;;26.90;51.70;;;;;;4845658;29;20462;-81
2022/08/02 07:37:07;;;;;;;2.30;2.10;;;26.90;51.60;;;;;;4828704;29;20457;-82
2022/08/02 07:43:15;;;;;;;1.87;1.70;;;26.90;51.60;;;;;;4828114;29;20418;-81
2022/08/02 07:46:04;;;;;;;2.40;2.03;;;26.90;51.60;;;;;;4825710;29;20425;-81
2022/08/02 07:48:39;;;;;;;2.30;2.03;;;26.90;51.50;;;;;;4826665;29;20499;-81
2022/08/02 07:51:40;;;;;;;;;;;;;;;;;;;;;
2022/08/02 07:57:37;;;;;;;3.00;2.47;;;27.00;51.50;;;;;;4924293;29;20399;-82
2022/08/02 08:00:09;;;;;;;2.30;2.10;;;27.00;51.50;;;;;;4938663;29;20471;-81
2022/08/02 08:03:02;;;;;;;2.03;1.80;;;27.00;51.50;;;;;;4939559;28;20448;-81
2022/08/02 08:12:27;;;;;;;1.90;1.70;;;27.00;51.60;;;;;;4938778;29;20459;-81
2022/08/02 08:15:09;;;;;;;2.17;1.97;;;27.00;51.70;;;;;;4941538;29;20495;-81
2022/08/02 08:17:49;;;;;;;1.97;1.77;;;27.00;51.70;;;;;;4941828;29;20407;-81
2022/08/02 08:20:18;;;;;;;2.37;2.17;;;27.00;51.70;;;;;;4944947;29;20411;-81
2022/08/02 08:22:56;;;;;;;2.43;2.23;;;27.00;51.80;;;;;;4942138;29;20427;-81
2022/08/02 08:25:40;;;;;;;1.70;1.60;;;27.00;51.60;;;;;;4957445;29;20423;-82
2022/08/02 08:28:34;;;;;;;2.43;2.23;;;27.00;51.60;;;;;;4924086;29;20839;-82
2022/08/02 08:31:04;;;;;;;3.53;2.80;;;27.00;51.70;;;;;;4938718;29;20495;-82
2022/08/02 08:33:35;;;;;;;1.97;1.87;;;27.00;52.20;;;;;;4929734;29;20416;-82
2022/08/02 08:36:06;;;;;;;2.07;1.87;;;27.00;51.70;;;;;;4920379;29;20444;-82
2022/08/02 08:38:49;;;;;;;2.50;2.30;;;27.10;51.70;;;;;;4919253;29;20429;-82
2022/08/02 08:41:21;;;;;;;2.50;2.30;;;27.10;51.70;;;;;;4938344;29;20464;-82
2022/08/02 08:43:51;;;;;;;2.37;2.17;;;27.10;51.70;;;;;;4922654;29;20448;-82
2022/08/02 08:49:50;;;;;;;2.83;2.63;;;27.10;51.70;;;;;;4975625;29;20441;-81
2022/08/02 08:52:45;;;;;;;2.50;2.30;;;27.00;51.70;;;;;;4961854;29;20559;-81
2022/08/02 08:56:22;;;;;;;2.07;1.90;;;27.10;51.70;;;;;;4973910;29;20394;-81
2022/08/02 09:02:28;;;;;;;2.47;2.27;;;27.10;51.80;;;;;;4938177;29;20430;-82
2022/08/02 09:05:31;;;;;;;;;;;;;;;;;;;;;
2022/08/02 09:08:10;;;;;;;2.30;2.10;;;27.00;51.70;;;;;;4881272;29;20409;-81
2022/08/02 09:10:48;;;;;;;2.40;2.20;;;27.00;51.80;;;;;;4918877;29;20456;-82
2022/08/02 09:13:41;;;;;;;3.90;2.20;;;27.10;51.80;;;;;;4918846;29;20424;-81
2022/08/02 09:16:12;;;;;;;2.00;1.90;;;27.10;51.80;;;;;;4903323;29;20409;-81
2022/08/02 09:18:50;;;;;;;2.30;2.10;;;27.10;51.80;;;;;;4886651;29;20405;-81
2022/08/02 09:21:25;;;;;;;2.47;2.20;;;27.10;51.70;;;;;;4903784;29;20724;-81
2022/08/02 09:24:30;;;;;;;;;;;;;;;;;;;;;
2022/08/02 09:27:25;;;;;;;2.33;2.00;;;27.10;51.70;;;;;;4918274;29;20424;-81
2022/08/02 09:30:23;;;;;;;2.53;2.33;;;27.10;51.80;;;;;;4914903;29;20477;-81
2022/08/02 09:33:35;;;;;;;3.27;2.10;;;27.10;51.70;;;;;;4899488;29;20468;-81
2022/08/02 09:36:45;;;;;;;2.37;2.17;;;27.10;51.80;;;;;;4921878;29;20404;-81
2022/08/02 09:39:15;;;;;;;2.57;2.37;;;27.10;51.80;;;;;;4937718;29;20410;-81
2022/08/02 09:42:00;;;;;;;2.60;2.40;;;27.10;51.70;;;;;;4921648;29;20427;-82
2022/08/02 09:44:54;;;;;;;3.00;2.20;;;27.10;51.70;;;;;;4922219;29;20398;-81
2022/08/02 09:47:57;;;;;;;2.43;2.03;;;27.10;51.60;;;;;;4940848;29;20488;-82
2022/08/02 09:53:56;;;;;;;2.60;2.40;;;27.10;51.60;;;;;;4932989;29;20499;-81
2022/08/02 09:56:29;;;;;;;2.50;2.30;;;27.10;51.60;;;;;;4921326;29;20416;-81
2022/08/02 09:59:33;;;;;;;2.87;2.57;;;27.10;51.60;;;;;;4886791;29;20757;-82
2022/08/02 10:02:54;;;;;;;2.70;2.50;;;27.20;51.60;;;;;;4884614;29;20434;-82
2022/08/02 10:05:42;;;;;;;2.70;2.50;;;27.10;51.50;;;;;;4900382;29;20478;-81
2022/08/02 10:08:21;;;;;;;2.70;2.33;;;27.10;51.60;;;;;;4897119;29;20414;-81
2022/08/02 10:11:00;;;;;;;3.53;3.23;;;27.10;51.60;;;;;;4870980;29;20454;-80
2022/08/02 10:17:03;;;;;;;;;;;;;;;;;;;;;
2022/08/02 10:19:47;;;;;;;3.23;2.93;;;27.10;51.40;;;;;;4898145;29;20476;-81
2022/08/02 10:29:34;;;;;;;2.97;2.77;;;27.10;51.30;;;;;;4960076;29;20800;-82
2022/08/02 10:35:48;;;;;;;2.67;2.43;;;27.20;51.30;;;;;;4940225;29;20451;-82
2022/08/02 10:38:53;;;;;;;3.17;2.83;;;27.10;51.40;;;;;;4940263;29;20424;-82
2022/08/02 10:42:04;;;;;;;2.57;2.37;;;27.10;51.40;;;;;;4927037;29;20424;-82
2022/08/02 10:44:35;;;;;;;2.87;2.67;;;27.20;51.50;;;;;;4905892;29;20420;-82
2022/08/02 11:00:56;;;;;;;3.30;3.00;;;27.10;51.40;;;;;;4921613;29;20416;-82
2022/08/02 11:04:02;;;;;;;3.17;2.87;;;27.10;51.40;;;;;;4920030;29;20404;-82
2022/08/02 11:07:22;;;;;;;3.30;3.00;;;27.20;51.30;;;;;;4907220;29;20421;-82
2022/08/02 11:09:54;;;;;;;3.10;2.80;;;27.10;51.20;;;;;;4921736;29;20471;-82
2022/08/02 11:12:31;;;;;;;3.00;2.70;;;27.10;51.30;;;;;;4920890;29;20452;-82
2022/08/02 11:15:05;;;;;;;2.80;2.60;;;27.10;51.20;;;;;;4899074;29;20448;-82
2022/08/02 11:18:11;;;;;;;4.80;2.80;;;27.20;51.30;;;;;;4879878;29;20564;-81
2022/08/02 11:21:12;;;;;;;3.63;3.10;;;27.20;51.20;;;;;;4922842;29;20472;-81
2022/08/02 11:23:53;;;;;;;3.00;2.80;;;27.20;51.20;;;;;;4913026;29;20830;-81
2022/08/02 11:26:31;;;;;;;2.80;2.60;;;27.20;51.20;;;;;;4919822;29;20405;-82
2022/08/02 11:29:24;;;;;;;3.43;3.10;;;27.20;51.20;;;;;;4921236;29;20430;-81
2022/08/02 11:32:55;;;;;;;5.47;3.00;;;27.20;51.30;;;;;;4947204;29;20463;-81
2022/08/02 11:35:42;;;;;;;3.40;2.30;;;27.20;51.30;;;;;;5028730;28;20411;-81
2022/08/02 11:38:32;;;;;;;3.03;2.77;;;27.20;51.40;;;;;;5079055;28;20471;-81
2022/08/02 11:41:29;;;;;;;2.80;2.60;;;27.20;51.30;;;;;;5098303;28;20395;-81
2022/08/02 11:44:00;;;;;;;2.60;2.40;;;27.20;51.30;;;;;;5118259;28;20404;-82
2022/08/02 11:46:56;;;;;;;2.90;2.70;;;27.20;51.20;;;;;;5116917;28;20408;-80
2022/08/02 11:52:56;;;;;;;2.80;2.60;;;27.20;51.10;;;;;;5117988;28;20395;-82
2022/08/02 12:06:27;;;;;;;4.70;2.70;;;27.20;50.90;;;;;;5056251;28;20398;-81
2022/08/02 12:19:35;;;;;;;3.10;2.90;;;27.20;50.90;;;;;;4996909;28;20465;-81
2022/08/02 12:26:08;;;;;;;5.03;2.60;;;27.20;50.70;;;;;;4958509;28;20403;-81
2022/08/02 12:35:52;;;;;;;2.60;2.40;;;27.20;50.60;;;;;;5016113;28;20388;-81
2022/08/02 12:38:42;;;;;;;2.83;2.30;;;27.20;50.60;;;;;;4998625;28;20510;-82
2022/08/02 12:45:13;;;;;;;2.80;2.60;;;27.20;50.60;;;;;;5015653;28;20388;-81
2022/08/02 12:47:49;;;;;;;2.73;2.53;;;27.20;50.60;;;;;;5015505;28;20408;-81
2022/08/02 12:50:44;;;;;;;4.30;2.33;;;27.20;50.50;;;;;;5009376;28;20403;-81
2022/08/02 12:53:40;;;;;;;3.97;2.10;;;27.20;50.50;;;;;;4998925;28;20400;-82
2022/08/02 12:59:52;;;;;;;2.67;2.47;;;27.20;50.50;;;;;;5006128;28;20411;-81
2022/08/02 13:02:30;;;;;;;2.43;2.20;;;27.20;50.50;;;;;;4980521;28;20431;-82
2022/08/02 13:08:09;;;;;;;2.50;2.30;;;27.30;50.40;;;;;;4995474;28;20412;-81
2022/08/02 13:14:06;;;;;;;2.40;2.20;;;27.30;50.40;;;;;;4995555;28;20365;-81
2022/08/02 13:16:59;;;;;;;2.87;2.67;;;27.30;50.30;;;;;;4989911;28;20452;-81
2022/08/02 13:29:40;;;;;;;2.47;2.27;;;27.30;50.10;;;;;;4995134;28;20525;-81
2022/08/02 13:32:20;;;;;;;2.40;2.20;;;27.30;50.00;;;;;;4994975;28;20464;-81
2022/08/02 13:35:06;;;;;;;2.80;2.30;;;27.30;50.00;;;;;;4995181;28;20425;-80
2022/08/02 13:37:47;;;;;;;;;;;;;;;;;;;;;
2022/08/02 13:41:22;;;;;;;2.57;2.37;;;27.30;50.00;;;;;;4964720;28;20425;-83
2022/08/02 13:43:43;;;;;;;2.67;2.47;;;27.30;49.90;;;;;;4985639;28;20476;-81
2022/08/02 13:46:13;;;;;;;5.30;2.77;;;27.30;49.90;;;;;;5036030;28;20410;-82
2022/08/02 13:48:42;;;;;;;2.70;2.50;;;27.30;49.90;;;;;;5034554;28;20399;-84
2022/08/02 13:51:38;;;;;;;3.13;2.13;;;27.30;49.90;;;;;;5034758;28;20478;-83
2022/08/02 13:54:08;;;;;;;2.63;2.43;;;27.30;49.90;;;;;;5053160;28;20399;-83
2022/08/02 13:56:35;;;;;;;3.30;2.43;;;27.30;50.00;;;;;;5064701;28;20439;-83
2022/08/02 13:59:09;;;;;;;2.50;2.30;;;27.30;50.00;;;;;;5096213;28;20483;-83
2022/08/02 14:02:03;;;;;;;2.50;2.30;;;27.30;50.00;;;;;;5115423;28;20398;-83
2022/08/02 14:04:48;;;;;;;2.60;2.30;;;27.30;49.90;;;;;;5097617;28;20412;-83
2022/08/02 14:18:02;;;;;;;2.40;2.20;;;27.30;49.70;;;;;;4992749;28;20392;-83
2022/08/02 14:20:41;;;;;;;2.40;2.20;;;27.30;49.50;;;;;;4991812;28;20440;-83
2022/08/02 14:30:32;;;;;;;2.50;2.27;;;27.30;49.70;;;;;;4976013;28;20471;-82
2022/08/02 14:36:49;;;;;;;3.43;2.70;;;27.30;49.60;;;;;;4979435;29;20406;-82
2022/08/02 14:39:21;;;;;;;2.17;1.97;;;27.30;49.60;;;;;;4968277;29;20507;-82
2022/08/02 14:42:01;;;;;;;2.07;1.87;;;27.30;49.50;;;;;;4998098;28;20438;-82
2022/08/02 14:45:02;;;;;;;;;;;;;;;;;;;;;
2022/08/02 14:47:50;;;;;;;2.37;2.10;;;27.30;49.40;;;;;;5018105;28;20380;-83
2022/08/02 14:54:20;;;;;;;2.27;2.07;;;27.30;49.50;;;;;;4940342;29;20516;-81
2022/08/02 15:00:52;;;;;;;2.40;2.20;;;27.30;49.40;;;;;;4922171;29;20504;-82
2022/08/02 15:13:58;;;;;;;2.40;2.20;;;27.30;49.40;;;;;;4866201;29;20497;-82
2022/08/02 15:16:34;;;;;;;2.50;2.30;;;27.30;49.40;;;;;;4864767;29;20479;-82
2022/08/02 15:22:44;;;;;;;3.67;2.20;;;27.30;49.30;;;;;;4824922;29;20477;-82
2022/08/02 15:25:22;;;;;;;2.60;2.40;;;27.30;49.30;;;;;;4837757;29;20404;-81
2022/08/02 15:27:51;;;;;;;3.00;2.00;;;27.30;49.20;;;;;;4847011;29;20415;-81
2022/08/02 15:30:19;;;;;;;2.40;1.80;;;27.30;49.00;;;;;;4843714;29;20456;-80
2022/08/02 15:32:59;;;;;;;2.30;2.10;;;27.30;48.90;;;;;;4813177;29;20453;-81
2022/08/02 15:35:39;;;;;;;2.37;2.17;;;27.30;48.70;;;;;;4824128;29;20470;-81
2022/08/02 15:38:22;;;;;;;;;;;;;;;;;;;;;
2022/08/02 15:41:03;;;;;;;2.20;2.00;;;27.30;48.40;;;;;;4845783;29;20409;-81
2022/08/02 15:43:33;;;;;;;3.00;1.87;;;27.40;48.60;;;;;;4844321;29;20477;-81
2022/08/02 15:46:05;;;;;;;2.50;1.73;;;27.40;48.60;;;;;;4856301;29;20422;-80
2022/08/02 15:48:34;;;;;;;2.40;2.20;;;27.40;48.60;;;;;;4899997;29;20429;-81
2022/08/02 15:51:15;;;;;;;2.00;1.80;;;27.40;48.50;;;;;;4899590;29;20459;-81
2022/08/02 16:03:57;;;;;;;2.40;2.20;;;27.40;48.00;;;;;;4937559;29;20375;-81
2022/08/02 16:07:02;;;;;;;1.70;1.60;;;27.30;48.00;;;;;;4938054;29;20415;-81
2022/08/02 16:09:39;;;;;;;1.70;1.60;;;27.30;47.90;;;;;;4919947;29;20410;-82
2022/08/02 16:12:06;;;;;;;2.03;1.83;;;27.30;47.90;;;;;;4906554;29;20641;-81
2022/08/02 16:14:36;;;;;;;2.03;1.80;;;27.30;48.00;;;;;;4928458;29;20422;-82
2022/08/02 16:17:10;;;;;;;2.50;2.30;;;27.30;48.10;;;;;;4958082;29;20419;-81
2022/08/02 16:19:40;;;;;;;1.83;1.73;;;27.40;48.10;;;;;;4943193;29;20421;-80
2022/08/02 16:22:25;;;;;;;1.67;1.57;;;27.30;47.90;;;;;;4960529;29;20799;-81
2022/08/02 16:24:56;;;;;;;1.90;1.73;;;27.40;47.90;;;;;;4974917;29;20422;-81
2022/08/02 16:27:22;;;;;;;2.00;1.80;;;27.40;47.90;;;;;;4964395;28;20420;-81
2022/08/02 16:29:50;;;;;;;1.80;1.70;;;27.40;47.90;;;;;;5014052;28;20491;-81
2022/08/02 16:32:28;;;;;;;2.03;1.83;;;27.40;47.90;;;;;;4997481;28;20492;-82
2022/08/02 16:35:01;;;;;;;2.53;1.83;;;27.40;47.90;;;;;;5014251;28;20408;-82
2022/08/02 16:37:27;;;;;;;2.27;2.07;;;27.40;47.80;;;;;;4997443;28;20412;-81
2022/08/02 16:40:09;;;;;;;2.10;1.90;;;27.40;47.90;;;;;;5009769;28;20423;-82
2022/08/02 16:42:48;;;;;;;2.00;1.80;;;27.40;47.80;;;;;;5017557;28;20431;-80
2022/08/02 16:45:38;;;;;;;2.03;1.80;;;27.40;47.60;;;;;;5017030;28;20439;-81
2022/08/02 16:48:06;;;;;;;2.13;1.87;;;27.40;48.30;;;;;;5015788;28;20427;-81
2022/08/02 16:50:33;;;;;;;2.20;2.00;;;27.40;47.80;;;;;;5016247;28;20800;-81
2022/08/02 16:53:02;;;;;;;1.77;1.67;;;27.40;47.70;;;;;;5017128;28;20415;-81
2022/08/02 16:55:36;;;;;;;2.27;1.73;;;27.40;47.40;;;;;;5032531;28;20795;-81
2022/08/02 16:58:11;;;;;;;2.40;2.13;;;27.40;47.40;;;;;;5016749;28;20506;-80
2022/08/02 17:00:41;;;;;;;2.33;1.90;;;27.40;47.40;;;;;;5033546;28;20399;-81
